sensor_id;sensor_type;location;lat;lon;timestamp;P1;durP1;ratioP1;P2;durP2;ratioP2
63218;SDS011;49320;52.512;13.448;2023-05-27T00:00:15;8.40;;;3.17;;
63218;SDS011;49320;52.512;13.448;2023-05-27T00:02:42;8.25;;;2.78;;
63218;SDS011;49320;52.512;13.448;2023-05-27T00:05:09;7.50;;;2.80;;
63218;SDS011;49320;52.512;13.448;2023-05-27T00:07:36;7.35;;;2.83;;
63218;SDS011;49320;52.512;13.448;2023-05-27T00:10:03;8.30;;;3.05;;
63218;SDS011;49320;52.512;13.448;2023-05-27T00:12:30;6.07;;;2.63;;
63218;SDS011;49320;52.512;13.448;2023-05-27T00:14:57;6.95;;;2.65;;
63218;SDS011;49320;52.512;13.448;2023-05-27T00:17:24;7.90;;;2.63;;
63218;SDS011;49320;52.512;13.448;2023-05-27T00:19:51;6.10;;;2.60;;
63218;SDS011;49320;52.512;13.448;2023-05-27T00:22:20;6.20;;;2.30;;
63218;SDS011;49320;52.512;13.448;2023-05-27T00:24:47;6.35;;;2.45;;
63218;SDS011;49320;52.512;13.448;2023-05-27T00:27:14;5.05;;;2.45;;
63218;SDS011;49320;52.512;13.448;2023-05-27T00:29:40;5.82;;;2.80;;
63218;SDS011;49320;52.512;13.448;2023-05-27T00:32:07;6.82;;;2.60;;
63218;SDS011;49320;52.512;13.448;2023-05-27T00:34:34;6.60;;;3.00;;
63218;SDS011;49320;52.512;13.448;2023-05-27T00:37:01;7.28;;;3.08;;
63218;SDS011;49320;52.512;13.448;2023-05-27T00:39:28;6.85;;;2.22;;
63218;SDS011;49320;52.512;13.448;2023-05-27T00:41:55;6.65;;;2.90;;
63218;SDS011;49320;52.512;13.448;2023-05-27T00:44:23;6.97;;;3.17;;
63218;SDS011;49320;52.512;13.448;2023-05-27T00:46:50;8.20;;;3.05;;
63218;SDS011;49320;52.512;13.448;2023-05-27T00:49:17;6.65;;;2.63;;
63218;SDS011;49320;52.512;13.448;2023-05-27T00:51:45;7.25;;;2.75;;
63218;SDS011;49320;52.512;13.448;2023-05-27T00:54:12;6.00;;;2.28;;
63218;SDS011;49320;52.512;13.448;2023-05-27T00:56:39;6.15;;;2.90;;
63218;SDS011;49320;52.512;13.448;2023-05-27T00:59:06;4.57;;;2.17;;
63218;SDS011;49320;52.512;13.448;2023-05-27T01:01:33;6.90;;;2.78;;
63218;SDS011;49320;52.512;13.448;2023-05-27T01:04:03;5.43;;;2.33;;
63218;SDS011;49320;52.512;13.448;2023-05-27T01:06:35;6.85;;;2.70;;
63218;SDS011;49320;52.512;13.448;2023-05-27T01:09:40;8.27;;;2.75;;
63218;SDS011;49320;52.512;13.448;2023-05-27T01:14:57;5.47;;;2.88;;
63218;SDS011;49320;52.512;13.448;2023-05-27T01:17:25;5.40;;;2.35;;
63218;SDS011;49320;52.512;13.448;2023-05-27T01:19:54;5.55;;;2.47;;
63218;SDS011;49320;52.512;13.448;2023-05-27T01:22:26;5.95;;;3.03;;
63218;SDS011;49320;52.512;13.448;2023-05-27T01:24:55;8.07;;;2.75;;
63218;SDS011;49320;52.512;13.448;2023-05-27T01:27:22;7.65;;;2.95;;
63218;SDS011;49320;52.512;13.448;2023-05-27T01:29:52;6.45;;;3.03;;
63218;SDS011;49320;52.512;13.448;2023-05-27T01:35:24;6.78;;;2.72;;
63218;SDS011;49320;52.512;13.448;2023-05-27T01:38:04;5.80;;;2.50;;
63218;SDS011;49320;52.512;13.448;2023-05-27T01:40:36;12.20;;;3.03;;
63218;SDS011;49320;52.512;13.448;2023-05-27T01:43:06;9.43;;;3.35;;
63218;SDS011;49320;52.512;13.448;2023-05-27T01:45:35;5.78;;;2.60;;
63218;SDS011;49320;52.512;13.448;2023-05-27T01:48:03;6.75;;;3.08;;
63218;SDS011;49320;52.512;13.448;2023-05-27T01:50:30;5.75;;;2.63;;
63218;SDS011;49320;52.512;13.448;2023-05-27T01:52:59;6.57;;;2.83;;
63218;SDS011;49320;52.512;13.448;2023-05-27T01:55:27;6.72;;;2.90;;
63218;SDS011;49320;52.512;13.448;2023-05-27T01:57:54;8.70;;;2.83;;
63218;SDS011;49320;52.512;13.448;2023-05-27T02:00:21;5.28;;;2.92;;
63218;SDS011;49320;52.512;13.448;2023-05-27T02:02:49;7.50;;;3.00;;
63218;SDS011;49320;52.512;13.448;2023-05-27T02:05:16;6.25;;;3.03;;
63218;SDS011;49320;52.512;13.448;2023-05-27T02:07:42;5.15;;;2.78;;
63218;SDS011;49320;52.512;13.448;2023-05-27T02:10:10;7.22;;;2.83;;
63218;SDS011;49320;52.512;13.448;2023-05-27T02:12:37;6.15;;;2.60;;
63218;SDS011;49320;52.512;13.448;2023-05-27T02:15:04;6.72;;;2.55;;
63218;SDS011;49320;52.512;13.448;2023-05-27T02:17:31;6.68;;;3.05;;
63218;SDS011;49320;52.512;13.448;2023-05-27T02:19:58;6.03;;;2.33;;
63218;SDS011;49320;52.512;13.448;2023-05-27T02:22:25;7.05;;;2.67;;
63218;SDS011;49320;52.512;13.448;2023-05-27T02:24:51;5.68;;;2.42;;
63218;SDS011;49320;52.512;13.448;2023-05-27T02:27:18;6.35;;;2.90;;
63218;SDS011;49320;52.512;13.448;2023-05-27T02:29:45;8.57;;;3.53;;
63218;SDS011;49320;52.512;13.448;2023-05-27T02:32:12;6.97;;;3.10;;
63218;SDS011;49320;52.512;13.448;2023-05-27T02:34:39;7.57;;;3.00;;
63218;SDS011;49320;52.512;13.448;2023-05-27T02:37:07;6.63;;;2.90;;
63218;SDS011;49320;52.512;13.448;2023-05-27T02:39:34;6.88;;;2.72;;
63218;SDS011;49320;52.512;13.448;2023-05-27T02:42:00;6.93;;;2.95;;
63218;SDS011;49320;52.512;13.448;2023-05-27T02:44:27;7.88;;;2.90;;
63218;SDS011;49320;52.512;13.448;2023-05-27T02:46:54;7.75;;;3.30;;
63218;SDS011;49320;52.512;13.448;2023-05-27T02:49:21;5.50;;;2.50;;
63218;SDS011;49320;52.512;13.448;2023-05-27T02:51:48;9.32;;;3.00;;
63218;SDS011;49320;52.512;13.448;2023-05-27T02:54:14;7.18;;;3.22;;
63218;SDS011;49320;52.512;13.448;2023-05-27T02:56:41;9.48;;;3.08;;
63218;SDS011;49320;52.512;13.448;2023-05-27T02:59:08;7.38;;;3.00;;
63218;SDS011;49320;52.512;13.448;2023-05-27T03:01:35;5.22;;;2.40;;
63218;SDS011;49320;52.512;13.448;2023-05-27T03:04:02;5.75;;;2.50;;
63218;SDS011;49320;52.512;13.448;2023-05-27T03:06:29;9.98;;;3.22;;
63218;SDS011;49320;52.512;13.448;2023-05-27T03:08:57;7.53;;;3.20;;
63218;SDS011;49320;52.512;13.448;2023-05-27T03:11:24;7.13;;;2.95;;
63218;SDS011;49320;52.512;13.448;2023-05-27T03:13:52;7.78;;;2.58;;
63218;SDS011;49320;52.512;13.448;2023-05-27T03:16:19;7.05;;;2.70;;
63218;SDS011;49320;52.512;13.448;2023-05-27T03:18:46;8.32;;;2.50;;
63218;SDS011;49320;52.512;13.448;2023-05-27T03:21:13;6.78;;;2.95;;
63218;SDS011;49320;52.512;13.448;2023-05-27T03:23:39;6.15;;;3.00;;
63218;SDS011;49320;52.512;13.448;2023-05-27T03:26:06;6.38;;;2.83;;
63218;SDS011;49320;52.512;13.448;2023-05-27T03:28:33;7.95;;;3.22;;
63218;SDS011;49320;52.512;13.448;2023-05-27T03:31:00;7.28;;;2.90;;
63218;SDS011;49320;52.512;13.448;2023-05-27T03:33:27;7.60;;;2.80;;
63218;SDS011;49320;52.512;13.448;2023-05-27T03:35:54;9.60;;;2.95;;
63218;SDS011;49320;52.512;13.448;2023-05-27T03:38:22;7.15;;;3.38;;
63218;SDS011;49320;52.512;13.448;2023-05-27T03:40:48;9.27;;;3.45;;
63218;SDS011;49320;52.512;13.448;2023-05-27T03:43:15;6.47;;;2.92;;
63218;SDS011;49320;52.512;13.448;2023-05-27T03:45:42;5.38;;;3.00;;
63218;SDS011;49320;52.512;13.448;2023-05-27T03:48:09;8.85;;;3.20;;
63218;SDS011;49320;52.512;13.448;2023-05-27T03:50:36;6.20;;;2.70;;
63218;SDS011;49320;52.512;13.448;2023-05-27T03:53:03;8.57;;;2.85;;
63218;SDS011;49320;52.512;13.448;2023-05-27T03:55:30;7.65;;;3.40;;
63218;SDS011;49320;52.512;13.448;2023-05-27T03:57:57;8.70;;;3.15;;
63218;SDS011;49320;52.512;13.448;2023-05-27T04:00:23;6.15;;;3.00;;
63218;SDS011;49320;52.512;13.448;2023-05-27T04:02:50;7.28;;;2.92;;
63218;SDS011;49320;52.512;13.448;2023-05-27T04:05:17;8.88;;;2.97;;
63218;SDS011;49320;52.512;13.448;2023-05-27T04:07:44;7.90;;;3.22;;
63218;SDS011;49320;52.512;13.448;2023-05-27T04:10:11;7.22;;;3.03;;
63218;SDS011;49320;52.512;13.448;2023-05-27T04:12:38;7.13;;;3.50;;
63218;SDS011;49320;52.512;13.448;2023-05-27T04:15:09;7.30;;;3.40;;
63218;SDS011;49320;52.512;13.448;2023-05-27T04:17:36;6.05;;;2.70;;
63218;SDS011;49320;52.512;13.448;2023-05-27T04:20:03;8.00;;;3.00;;
63218;SDS011;49320;52.512;13.448;2023-05-27T04:22:40;7.47;;;3.38;;
63218;SDS011;49320;52.512;13.448;2023-05-27T04:25:10;6.28;;;3.03;;
63218;SDS011;49320;52.512;13.448;2023-05-27T04:27:37;6.85;;;3.17;;
63218;SDS011;49320;52.512;13.448;2023-05-27T04:30:05;7.88;;;3.03;;
63218;SDS011;49320;52.512;13.448;2023-05-27T04:32:34;6.90;;;3.33;;
63218;SDS011;49320;52.512;13.448;2023-05-27T04:35:07;6.03;;;3.22;;
63218;SDS011;49320;52.512;13.448;2023-05-27T04:37:36;9.93;;;3.10;;
63218;SDS011;49320;52.512;13.448;2023-05-27T04:40:04;9.88;;;3.60;;
63218;SDS011;49320;52.512;13.448;2023-05-27T04:42:35;6.90;;;2.85;;
63218;SDS011;49320;52.512;13.448;2023-05-27T04:45:05;7.60;;;3.28;;
63218;SDS011;49320;52.512;13.448;2023-05-27T04:47:33;9.13;;;3.22;;
63218;SDS011;49320;52.512;13.448;2023-05-27T04:50:05;11.38;;;2.78;;
63218;SDS011;49320;52.512;13.448;2023-05-27T04:52:36;7.00;;;2.80;;
63218;SDS011;49320;52.512;13.448;2023-05-27T04:55:08;7.00;;;3.33;;
63218;SDS011;49320;52.512;13.448;2023-05-27T04:57:36;6.22;;;3.15;;
63218;SDS011;49320;52.512;13.448;2023-05-27T05:00:07;7.10;;;3.40;;
63218;SDS011;49320;52.512;13.448;2023-05-27T05:02:34;10.25;;;3.03;;
63218;SDS011;49320;52.512;13.448;2023-05-27T05:05:02;7.78;;;3.13;;
63218;SDS011;49320;52.512;13.448;2023-05-27T05:07:31;6.88;;;2.88;;
63218;SDS011;49320;52.512;13.448;2023-05-27T05:10:04;6.60;;;2.90;;
63218;SDS011;49320;52.512;13.448;2023-05-27T05:12:39;7.70;;;2.75;;
63218;SDS011;49320;52.512;13.448;2023-05-27T05:15:07;5.50;;;2.85;;
63218;SDS011;49320;52.512;13.448;2023-05-27T05:17:34;5.78;;;2.72;;
63218;SDS011;49320;52.512;13.448;2023-05-27T05:20:02;7.55;;;2.75;;
63218;SDS011;49320;52.512;13.448;2023-05-27T05:22:30;6.20;;;3.10;;
63218;SDS011;49320;52.512;13.448;2023-05-27T05:24:57;8.25;;;2.70;;
63218;SDS011;49320;52.512;13.448;2023-05-27T05:27:24;6.82;;;2.65;;
63218;SDS011;49320;52.512;13.448;2023-05-27T05:29:51;7.75;;;3.28;;
63218;SDS011;49320;52.512;13.448;2023-05-27T05:32:18;5.70;;;2.83;;
63218;SDS011;49320;52.512;13.448;2023-05-27T05:34:45;5.80;;;2.75;;
63218;SDS011;49320;52.512;13.448;2023-05-27T05:37:12;7.05;;;2.50;;
63218;SDS011;49320;52.512;13.448;2023-05-27T05:39:40;6.18;;;3.40;;
63218;SDS011;49320;52.512;13.448;2023-05-27T05:42:09;5.70;;;2.97;;
63218;SDS011;49320;52.512;13.448;2023-05-27T05:44:36;8.10;;;3.13;;
63218;SDS011;49320;52.512;13.448;2023-05-27T05:47:02;5.32;;;2.78;;
63218;SDS011;49320;52.512;13.448;2023-05-27T05:49:30;6.28;;;2.55;;
63218;SDS011;49320;52.512;13.448;2023-05-27T05:51:57;6.25;;;2.55;;
63218;SDS011;49320;52.512;13.448;2023-05-27T05:54:24;6.25;;;2.75;;
63218;SDS011;49320;52.512;13.448;2023-05-27T05:56:51;6.40;;;2.42;;
63218;SDS011;49320;52.512;13.448;2023-05-27T05:59:18;4.70;;;2.25;;
63218;SDS011;49320;52.512;13.448;2023-05-27T06:01:46;4.85;;;2.50;;
63218;SDS011;49320;52.512;13.448;2023-05-27T06:04:13;5.13;;;2.28;;
63218;SDS011;49320;52.512;13.448;2023-05-27T06:06:39;6.65;;;2.30;;
63218;SDS011;49320;52.512;13.448;2023-05-27T06:09:07;5.95;;;2.80;;
63218;SDS011;49320;52.512;13.448;2023-05-27T06:11:34;3.90;;;2.00;;
63218;SDS011;49320;52.512;13.448;2023-05-27T06:14:01;3.78;;;1.50;;
63218;SDS011;49320;52.512;13.448;2023-05-27T06:16:27;3.38;;;1.85;;
63218;SDS011;49320;52.512;13.448;2023-05-27T06:18:54;4.30;;;1.80;;
63218;SDS011;49320;52.512;13.448;2023-05-27T06:21:21;2.95;;;1.33;;
63218;SDS011;49320;52.512;13.448;2023-05-27T06:23:48;2.53;;;1.42;;
63218;SDS011;49320;52.512;13.448;2023-05-27T06:26:16;4.28;;;1.40;;
63218;SDS011;49320;52.512;13.448;2023-05-27T06:28:43;3.22;;;1.55;;
63218;SDS011;49320;52.512;13.448;2023-05-27T06:31:10;2.08;;;1.48;;
63218;SDS011;49320;52.512;13.448;2023-05-27T06:33:37;2.50;;;1.27;;
63218;SDS011;49320;52.512;13.448;2023-05-27T06:36:04;2.75;;;1.38;;
63218;SDS011;49320;52.512;13.448;2023-05-27T06:38:32;2.88;;;1.42;;
63218;SDS011;49320;52.512;13.448;2023-05-27T06:40:59;2.90;;;1.10;;
63218;SDS011;49320;52.512;13.448;2023-05-27T06:43:25;3.90;;;1.35;;
63218;SDS011;49320;52.512;13.448;2023-05-27T06:45:52;2.15;;;1.17;;
63218;SDS011;49320;52.512;13.448;2023-05-27T06:48:29;2.90;;;1.20;;
63218;SDS011;49320;52.512;13.448;2023-05-27T06:50:56;1.52;;;1.15;;
63218;SDS011;49320;52.512;13.448;2023-05-27T06:53:23;1.40;;;1.02;;
63218;SDS011;49320;52.512;13.448;2023-05-27T06:55:49;2.03;;;1.10;;
63218;SDS011;49320;52.512;13.448;2023-05-27T06:58:16;1.85;;;1.00;;
63218;SDS011;49320;52.512;13.448;2023-05-27T07:00:43;1.70;;;1.00;;
63218;SDS011;49320;52.512;13.448;2023-05-27T07:03:10;2.25;;;0.90;;
63218;SDS011;49320;52.512;13.448;2023-05-27T07:05:37;1.88;;;1.02;;
63218;SDS011;49320;52.512;13.448;2023-05-27T07:08:05;2.17;;;1.00;;
63218;SDS011;49320;52.512;13.448;2023-05-27T07:10:32;3.20;;;1.00;;
63218;SDS011;49320;52.512;13.448;2023-05-27T07:12:59;2.60;;;0.77;;
63218;SDS011;49320;52.512;13.448;2023-05-27T07:15:26;1.45;;;0.90;;
63218;SDS011;49320;52.512;13.448;2023-05-27T07:17:53;2.00;;;0.95;;
63218;SDS011;49320;52.512;13.448;2023-05-27T07:20:21;1.95;;;1.10;;
63218;SDS011;49320;52.512;13.448;2023-05-27T07:22:48;1.77;;;1.05;;
63218;SDS011;49320;52.512;13.448;2023-05-27T07:25:14;1.90;;;1.08;;
63218;SDS011;49320;52.512;13.448;2023-05-27T07:27:41;1.48;;;0.70;;
63218;SDS011;49320;52.512;13.448;2023-05-27T07:30:09;1.80;;;0.95;;
63218;SDS011;49320;52.512;13.448;2023-05-27T07:32:37;1.92;;;1.10;;
63218;SDS011;49320;52.512;13.448;2023-05-27T07:35:04;4.22;;;0.85;;
63218;SDS011;49320;52.512;13.448;2023-05-27T07:37:31;3.20;;;1.10;;
63218;SDS011;49320;52.512;13.448;2023-05-27T07:39:58;1.40;;;0.82;;
63218;SDS011;49320;52.512;13.448;2023-05-27T07:42:25;1.65;;;0.80;;
63218;SDS011;49320;52.512;13.448;2023-05-27T07:44:53;1.92;;;0.80;;
63218;SDS011;49320;52.512;13.448;2023-05-27T07:47:21;2.50;;;0.60;;
63218;SDS011;49320;52.512;13.448;2023-05-27T07:49:49;3.50;;;0.80;;
63218;SDS011;49320;52.512;13.448;2023-05-27T07:52:17;1.77;;;0.85;;
63218;SDS011;49320;52.512;13.448;2023-05-27T07:54:43;1.13;;;0.60;;
63218;SDS011;49320;52.512;13.448;2023-05-27T07:57:20;4.30;;;1.20;;
63218;SDS011;49320;52.512;13.448;2023-05-27T07:59:47;1.83;;;0.95;;
63218;SDS011;49320;52.512;13.448;2023-05-27T08:02:14;2.10;;;0.85;;
63218;SDS011;49320;52.512;13.448;2023-05-27T08:04:41;2.95;;;0.93;;
63218;SDS011;49320;52.512;13.448;2023-05-27T08:07:10;3.72;;;0.98;;
63218;SDS011;49320;52.512;13.448;2023-05-27T08:09:37;1.75;;;0.90;;
63218;SDS011;49320;52.512;13.448;2023-05-27T08:12:04;0.75;;;0.75;;
63218;SDS011;49320;52.512;13.448;2023-05-27T08:14:33;1.58;;;1.00;;
63218;SDS011;49320;52.512;13.448;2023-05-27T08:17:00;0.90;;;0.65;;
63218;SDS011;49320;52.512;13.448;2023-05-27T08:19:27;1.40;;;0.93;;
63218;SDS011;49320;52.512;13.448;2023-05-27T08:21:54;1.55;;;0.70;;
63218;SDS011;49320;52.512;13.448;2023-05-27T08:24:23;0.60;;;0.60;;
63218;SDS011;49320;52.512;13.448;2023-05-27T08:26:50;1.85;;;0.82;;
63218;SDS011;49320;52.512;13.448;2023-05-27T08:29:17;1.02;;;0.70;;
63218;SDS011;49320;52.512;13.448;2023-05-27T08:31:45;1.65;;;0.80;;
63218;SDS011;49320;52.512;13.448;2023-05-27T08:34:12;1.77;;;0.70;;
63218;SDS011;49320;52.512;13.448;2023-05-27T08:36:40;1.55;;;0.90;;
63218;SDS011;49320;52.512;13.448;2023-05-27T08:39:06;1.50;;;0.80;;
63218;SDS011;49320;52.512;13.448;2023-05-27T08:41:34;1.30;;;0.80;;
63218;SDS011;49320;52.512;13.448;2023-05-27T08:44:03;1.50;;;0.70;;
63218;SDS011;49320;52.512;13.448;2023-05-27T08:46:47;1.13;;;0.70;;
63218;SDS011;49320;52.512;13.448;2023-05-27T08:49:16;1.67;;;1.15;;
63218;SDS011;49320;52.512;13.448;2023-05-27T08:51:44;1.88;;;0.90;;
63218;SDS011;49320;52.512;13.448;2023-05-27T08:54:12;1.98;;;0.85;;
63218;SDS011;49320;52.512;13.448;2023-05-27T08:56:39;4.35;;;2.42;;
63218;SDS011;49320;52.512;13.448;2023-05-27T08:59:09;2.40;;;1.10;;
63218;SDS011;49320;52.512;13.448;2023-05-27T09:01:37;0.93;;;0.82;;
63218;SDS011;49320;52.512;13.448;2023-05-27T09:04:05;1.23;;;0.90;;
63218;SDS011;49320;52.512;13.448;2023-05-27T09:06:32;1.25;;;0.80;;
63218;SDS011;49320;52.512;13.448;2023-05-27T09:09:00;1.50;;;0.80;;
63218;SDS011;49320;52.512;13.448;2023-05-27T09:11:27;0.93;;;0.80;;
63218;SDS011;49320;52.512;13.448;2023-05-27T09:13:55;1.40;;;0.82;;
63218;SDS011;49320;52.512;13.448;2023-05-27T09:16:22;2.35;;;0.88;;
63218;SDS011;49320;52.512;13.448;2023-05-27T09:18:50;1.20;;;0.90;;
63218;SDS011;49320;52.512;13.448;2023-05-27T09:21:17;1.65;;;0.98;;
63218;SDS011;49320;52.512;13.448;2023-05-27T09:23:44;1.08;;;0.60;;
63218;SDS011;49320;52.512;13.448;2023-05-27T09:26:11;1.17;;;0.80;;
63218;SDS011;49320;52.512;13.448;2023-05-27T09:28:39;1.52;;;0.68;;
63218;SDS011;49320;52.512;13.448;2023-05-27T09:31:08;1.20;;;0.80;;
63218;SDS011;49320;52.512;13.448;2023-05-27T09:33:36;1.17;;;0.80;;
63218;SDS011;49320;52.512;13.448;2023-05-27T09:36:06;1.05;;;0.77;;
63218;SDS011;49320;52.512;13.448;2023-05-27T09:38:38;1.35;;;0.88;;
63218;SDS011;49320;52.512;13.448;2023-05-27T09:41:04;1.92;;;0.90;;
63218;SDS011;49320;52.512;13.448;2023-05-27T09:43:31;1.90;;;0.80;;
63218;SDS011;49320;52.512;13.448;2023-05-27T09:46:02;1.10;;;0.80;;
63218;SDS011;49320;52.512;13.448;2023-05-27T09:48:37;1.77;;;0.90;;
63218;SDS011;49320;52.512;13.448;2023-05-27T09:51:04;0.95;;;0.80;;
63218;SDS011;49320;52.512;13.448;2023-05-27T09:53:32;1.13;;;0.82;;
63218;SDS011;49320;52.512;13.448;2023-05-27T09:56:03;2.40;;;1.08;;
63218;SDS011;49320;52.512;13.448;2023-05-27T09:58:30;1.35;;;0.82;;
63218;SDS011;49320;52.512;13.448;2023-05-27T10:00:57;2.72;;;1.13;;
63218;SDS011;49320;52.512;13.448;2023-05-27T10:03:25;2.45;;;1.50;;
63218;SDS011;49320;52.512;13.448;2023-05-27T10:05:55;2.63;;;1.30;;
63218;SDS011;49320;52.512;13.448;2023-05-27T10:08:22;1.98;;;1.20;;
63218;SDS011;49320;52.512;13.448;2023-05-27T10:10:52;1.58;;;1.13;;
63218;SDS011;49320;52.512;13.448;2023-05-27T10:13:20;1.98;;;0.88;;
63218;SDS011;49320;52.512;13.448;2023-05-27T10:15:51;1.80;;;1.10;;
63218;SDS011;49320;52.512;13.448;2023-05-27T10:18:22;2.33;;;1.17;;
63218;SDS011;49320;52.512;13.448;2023-05-27T10:20:54;2.20;;;1.10;;
63218;SDS011;49320;52.512;13.448;2023-05-27T10:23:28;1.80;;;1.02;;
63218;SDS011;49320;52.512;13.448;2023-05-27T10:28:42;1.42;;;0.93;;
63218;SDS011;49320;52.512;13.448;2023-05-27T10:31:10;2.10;;;1.45;;
63218;SDS011;49320;52.512;13.448;2023-05-27T10:33:44;1.58;;;1.00;;
63218;SDS011;49320;52.512;13.448;2023-05-27T10:36:15;2.47;;;1.08;;
63218;SDS011;49320;52.512;13.448;2023-05-27T10:41:26;0.82;;;0.70;;
63218;SDS011;49320;52.512;13.448;2023-05-27T10:43:56;1.20;;;0.90;;
63218;SDS011;49320;52.512;13.448;2023-05-27T10:46:26;1.75;;;1.10;;
63218;SDS011;49320;52.512;13.448;2023-05-27T10:49:14;2.85;;;1.55;;
63218;SDS011;49320;52.512;13.448;2023-05-27T10:51:49;2.30;;;1.45;;
63218;SDS011;49320;52.512;13.448;2023-05-27T10:54:16;3.67;;;1.27;;
63218;SDS011;49320;52.512;13.448;2023-05-27T10:56:54;2.13;;;1.20;;
63218;SDS011;49320;52.512;13.448;2023-05-27T10:59:22;1.90;;;1.00;;
63218;SDS011;49320;52.512;13.448;2023-05-27T11:01:53;1.25;;;0.93;;
63218;SDS011;49320;52.512;13.448;2023-05-27T11:04:21;1.40;;;0.98;;
63218;SDS011;49320;52.512;13.448;2023-05-27T11:06:58;2.17;;;1.13;;
63218;SDS011;49320;52.512;13.448;2023-05-27T11:09:30;2.33;;;1.30;;
63218;SDS011;49320;52.512;13.448;2023-05-27T11:12:08;1.80;;;1.30;;
63218;SDS011;49320;52.512;13.448;2023-05-27T11:17:10;1.80;;;1.13;;
63218;SDS011;49320;52.512;13.448;2023-05-27T11:19:41;1.35;;;0.93;;
63218;SDS011;49320;52.512;13.448;2023-05-27T11:22:09;1.77;;;0.93;;
63218;SDS011;49320;52.512;13.448;2023-05-27T11:24:36;5.47;;;1.75;;
63218;SDS011;49320;52.512;13.448;2023-05-27T11:27:10;2.17;;;1.30;;
63218;SDS011;49320;52.512;13.448;2023-05-27T11:29:49;2.42;;;1.27;;
63218;SDS011;49320;52.512;13.448;2023-05-27T11:32:18;2.17;;;1.50;;
63218;SDS011;49320;52.512;13.448;2023-05-27T11:34:46;2.47;;;1.27;;
63218;SDS011;49320;52.512;13.448;2023-05-27T11:37:14;2.83;;;1.20;;
63218;SDS011;49320;52.512;13.448;2023-05-27T11:39:52;3.15;;;1.42;;
63218;SDS011;49320;52.512;13.448;2023-05-27T11:42:23;3.05;;;1.63;;
63218;SDS011;49320;52.512;13.448;2023-05-27T11:44:51;2.00;;;1.30;;
63218;SDS011;49320;52.512;13.448;2023-05-27T11:47:20;2.22;;;1.42;;
63218;SDS011;49320;52.512;13.448;2023-05-27T11:49:48;2.33;;;1.80;;
63218;SDS011;49320;52.512;13.448;2023-05-27T11:52:16;2.38;;;1.67;;
63218;SDS011;49320;52.512;13.448;2023-05-27T11:54:44;2.42;;;1.90;;
63218;SDS011;49320;52.512;13.448;2023-05-27T11:57:23;2.78;;;2.08;;
63218;SDS011;49320;52.512;13.448;2023-05-27T11:59:50;2.25;;;1.80;;
63218;SDS011;49320;52.512;13.448;2023-05-27T12:02:17;2.85;;;1.52;;
63218;SDS011;49320;52.512;13.448;2023-05-27T12:04:47;1.52;;;1.27;;
63218;SDS011;49320;52.512;13.448;2023-05-27T12:07:14;2.88;;;1.80;;
63218;SDS011;49320;52.512;13.448;2023-05-27T12:09:46;2.95;;;1.50;;
63218;SDS011;49320;52.512;13.448;2023-05-27T12:12:18;2.63;;;1.33;;
63218;SDS011;49320;52.512;13.448;2023-05-27T12:14:46;1.63;;;1.30;;
63218;SDS011;49320;52.512;13.448;2023-05-27T12:17:13;2.20;;;1.30;;
63218;SDS011;49320;52.512;13.448;2023-05-27T12:19:40;1.05;;;0.98;;
63218;SDS011;49320;52.512;13.448;2023-05-27T12:22:06;2.35;;;1.35;;
63218;SDS011;49320;52.512;13.448;2023-05-27T12:24:33;2.30;;;1.27;;
63218;SDS011;49320;52.512;13.448;2023-05-27T12:27:00;2.25;;;1.27;;
63218;SDS011;49320;52.512;13.448;2023-05-27T12:29:28;2.55;;;1.67;;
63218;SDS011;49320;52.512;13.448;2023-05-27T12:31:56;1.83;;;1.35;;
63218;SDS011;49320;52.512;13.448;2023-05-27T12:34:23;1.10;;;1.00;;
63218;SDS011;49320;52.512;13.448;2023-05-27T12:36:51;1.27;;;0.93;;
63218;SDS011;49320;52.512;13.448;2023-05-27T12:39:18;3.72;;;1.55;;
63218;SDS011;49320;52.512;13.448;2023-05-27T12:41:46;1.80;;;0.98;;
63218;SDS011;49320;52.512;13.448;2023-05-27T12:44:15;2.55;;;1.20;;
63218;SDS011;49320;52.512;13.448;2023-05-27T12:46:42;1.15;;;0.75;;
63218;SDS011;49320;52.512;13.448;2023-05-27T12:49:09;3.47;;;1.17;;
63218;SDS011;49320;52.512;13.448;2023-05-27T12:51:36;3.05;;;1.17;;
63218;SDS011;49320;52.512;13.448;2023-05-27T12:54:04;1.90;;;1.33;;
63218;SDS011;49320;52.512;13.448;2023-05-27T12:56:31;2.03;;;1.17;;
63218;SDS011;49320;52.512;13.448;2023-05-27T12:58:58;1.10;;;0.90;;
63218;SDS011;49320;52.512;13.448;2023-05-27T13:01:24;1.58;;;1.17;;
63218;SDS011;49320;52.512;13.448;2023-05-27T13:03:52;1.40;;;1.08;;
63218;SDS011;49320;52.512;13.448;2023-05-27T13:06:19;1.77;;;1.08;;
63218;SDS011;49320;52.512;13.448;2023-05-27T13:08:46;1.30;;;1.00;;
63218;SDS011;49320;52.512;13.448;2023-05-27T13:11:13;2.80;;;1.10;;
63218;SDS011;49320;52.512;13.448;2023-05-27T13:13:40;2.22;;;1.10;;
63218;SDS011;49320;52.512;13.448;2023-05-27T13:16:06;1.88;;;0.95;;
63218;SDS011;49320;52.512;13.448;2023-05-27T13:18:33;1.48;;;1.00;;
63218;SDS011;49320;52.512;13.448;2023-05-27T13:21:01;1.88;;;1.10;;
63218;SDS011;49320;52.512;13.448;2023-05-27T13:23:28;2.03;;;0.95;;
63218;SDS011;49320;52.512;13.448;2023-05-27T13:25:55;1.60;;;1.00;;
63218;SDS011;49320;52.512;13.448;2023-05-27T13:28:22;0.90;;;0.70;;
63218;SDS011;49320;52.512;13.448;2023-05-27T13:30:49;1.42;;;1.20;;
63218;SDS011;49320;52.512;13.448;2023-05-27T13:33:16;1.90;;;1.05;;
63218;SDS011;49320;52.512;13.448;2023-05-27T13:35:43;1.40;;;1.00;;
63218;SDS011;49320;52.512;13.448;2023-05-27T13:38:10;1.35;;;1.00;;
63218;SDS011;49320;52.512;13.448;2023-05-27T13:40:39;1.38;;;1.13;;
63218;SDS011;49320;52.512;13.448;2023-05-27T13:43:07;5.15;;;1.20;;
63218;SDS011;49320;52.512;13.448;2023-05-27T13:45:34;1.17;;;0.88;;
63218;SDS011;49320;52.512;13.448;2023-05-27T13:48:01;1.70;;;1.05;;
63218;SDS011;49320;52.512;13.448;2023-05-27T13:50:29;1.58;;;1.08;;
63218;SDS011;49320;52.512;13.448;2023-05-27T13:52:57;2.58;;;0.85;;
63218;SDS011;49320;52.512;13.448;2023-05-27T13:55:24;1.60;;;1.38;;
63218;SDS011;49320;52.512;13.448;2023-05-27T13:57:51;2.55;;;1.10;;
63218;SDS011;49320;52.512;13.448;2023-05-27T14:00:18;1.23;;;1.00;;
63218;SDS011;49320;52.512;13.448;2023-05-27T14:02:45;2.00;;;1.10;;
63218;SDS011;49320;52.512;13.448;2023-05-27T14:05:12;2.00;;;1.30;;
63218;SDS011;49320;52.512;13.448;2023-05-27T14:07:40;1.75;;;1.10;;
63218;SDS011;49320;52.512;13.448;2023-05-27T14:10:12;1.35;;;1.00;;
63218;SDS011;49320;52.512;13.448;2023-05-27T14:12:39;1.50;;;1.02;;
63218;SDS011;49320;52.512;13.448;2023-05-27T14:15:07;5.57;;;1.48;;
63218;SDS011;49320;52.512;13.448;2023-05-27T14:17:35;1.50;;;1.08;;
63218;SDS011;49320;52.512;13.448;2023-05-27T14:20:03;1.67;;;1.10;;
63218;SDS011;49320;52.512;13.448;2023-05-27T14:22:36;1.33;;;1.20;;
63218;SDS011;49320;52.512;13.448;2023-05-27T14:25:04;1.45;;;1.10;;
63218;SDS011;49320;52.512;13.448;2023-05-27T14:27:32;1.40;;;0.90;;
63218;SDS011;49320;52.512;13.448;2023-05-27T14:29:58;1.33;;;1.10;;
63218;SDS011;49320;52.512;13.448;2023-05-27T14:32:25;2.38;;;1.20;;
63218;SDS011;49320;52.512;13.448;2023-05-27T14:34:52;2.05;;;1.02;;
63218;SDS011;49320;52.512;13.448;2023-05-27T14:37:22;3.33;;;1.20;;
63218;SDS011;49320;52.512;13.448;2023-05-27T14:39:50;3.28;;;1.00;;
63218;SDS011;49320;52.512;13.448;2023-05-27T14:42:18;2.03;;;1.30;;
63218;SDS011;49320;52.512;13.448;2023-05-27T14:44:46;1.55;;;1.00;;
63218;SDS011;49320;52.512;13.448;2023-05-27T14:47:13;2.08;;;1.20;;
63218;SDS011;49320;52.512;13.448;2023-05-27T14:49:40;1.40;;;1.00;;
63218;SDS011;49320;52.512;13.448;2023-05-27T14:52:08;1.50;;;1.13;;